createdAt,value
2018-04-18T00:00:03.549Z,11.10
2018-04-18T00:02:31.208Z,11.10
2018-04-18T00:04:58.905Z,11.10
2018-04-18T00:07:28.048Z,11.30
2018-04-18T00:09:55.837Z,11.30
2018-04-18T00:12:23.476Z,11.20
2018-04-18T00:14:51.193Z,11.10
2018-04-18T00:17:18.956Z,11.00
2018-04-18T00:19:46.691Z,11.00
2018-04-18T00:22:14.372Z,11.00
2018-04-18T00:24:42.120Z,11.00
2018-04-18T00:27:09.752Z,11.00
2018-04-18T00:29:37.473Z,11.10
2018-04-18T00:32:05.149Z,11.10
2018-04-18T00:34:33.689Z,11.20
2018-04-18T00:37:01.352Z,11.20
2018-04-18T00:39:28.967Z,11.10
2018-04-18T00:41:57.413Z,11.10
2018-04-18T00:44:25.982Z,11.10
2018-04-18T00:46:53.609Z,11.10
2018-04-18T00:49:21.302Z,11.10
2018-04-18T00:51:48.940Z,11.00
2018-04-18T00:54:16.743Z,10.90
2018-04-18T00:56:44.526Z,10.90
2018-04-18T00:59:12.152Z,10.80
2018-04-18T01:01:39.847Z,10.90
2018-04-18T01:04:07.540Z,10.90
2018-04-18T01:06:35.992Z,10.70
2018-04-18T01:09:03.616Z,10.70
2018-04-18T01:11:31.286Z,10.70
2018-04-18T01:13:58.924Z,10.70
2018-04-18T01:16:26.718Z,10.70
2018-04-18T01:18:54.519Z,10.80
2018-04-18T01:21:22.770Z,10.80
2018-04-18T01:23:50.412Z,10.70
2018-04-18T01:26:18.113Z,10.80
2018-04-18T01:28:45.845Z,10.70
2018-04-18T01:31:13.513Z,10.80
2018-04-18T01:33:41.144Z,10.80
2018-04-18T01:36:08.866Z,10.70
2018-04-18T01:38:36.512Z,10.80
2018-04-18T01:41:04.149Z,10.70
2018-04-18T01:43:31.822Z,10.70
2018-04-18T01:45:59.476Z,10.80
2018-04-18T01:48:27.087Z,10.70
2018-04-18T01:50:55.464Z,10.70
2018-04-18T01:53:23.884Z,10.40
2018-04-18T01:55:51.600Z,10.30
2018-04-18T01:58:19.984Z,10.20
2018-04-18T02:00:47.914Z,10.20
2018-04-18T02:03:15.611Z,10.20
2018-04-18T02:05:44.160Z,10.20
2018-04-18T02:08:12.027Z,10.20
2018-04-18T02:10:39.673Z,10.30
2018-04-18T02:13:07.333Z,10.30
2018-04-18T02:15:35.126Z,10.40
2018-04-18T02:18:03.702Z,10.50
2018-04-18T02:20:31.311Z,10.50
2018-04-18T02:22:59.845Z,10.30
2018-04-18T02:25:27.537Z,10.30
2018-04-18T02:27:55.271Z,10.30
2018-04-18T02:30:22.970Z,10.40
2018-04-18T02:32:52.309Z,10.40
2018-04-18T02:35:20.029Z,10.40
2018-04-18T02:37:48.512Z,10.30
2018-04-18T02:40:16.160Z,10.30
2018-04-18T02:42:43.943Z,10.30
2018-04-18T02:45:12.345Z,10.10
2018-04-18T02:47:40.972Z,9.90
2018-04-18T02:50:08.648Z,9.90
2018-04-18T02:52:36.411Z,9.80
2018-04-18T02:55:04.982Z,9.80
2018-04-18T02:57:32.624Z,9.80
2018-04-18T03:00:00.306Z,9.90
2018-04-18T03:02:27.998Z,9.90
2018-04-18T03:04:55.762Z,10.00
2018-04-18T03:07:23.503Z,10.00
2018-04-18T03:09:51.343Z,10.10
2018-04-18T03:12:19.036Z,10.10
2018-04-18T03:14:46.792Z,10.10
2018-04-18T03:17:15.305Z,10.00
2018-04-18T03:19:42.916Z,9.80
2018-04-18T03:22:10.638Z,9.70
2018-04-18T03:24:39.110Z,9.60
2018-04-18T03:27:06.760Z,9.60
2018-04-18T03:29:34.417Z,9.50
2018-04-18T03:32:02.099Z,9.40
2018-04-18T03:34:29.744Z,9.40
2018-04-18T03:36:57.388Z,9.50
2018-04-18T03:39:25.085Z,9.40
2018-04-18T03:41:53.463Z,9.40
2018-04-18T03:44:21.079Z,9.40
2018-04-18T03:46:48.727Z,9.30
2018-04-18T03:49:16.527Z,9.30
2018-04-18T03:51:44.296Z,9.30
2018-04-18T03:54:12.543Z,9.30
2018-04-18T03:56:40.261Z,9.40
2018-04-18T03:59:08.664Z,9.50
2018-04-18T04:01:37.292Z,9.60
2018-04-18T04:04:04.900Z,9.60
2018-04-18T04:06:33.342Z,9.60
2018-04-18T04:09:00.981Z,9.60
2018-04-18T04:11:28.774Z,9.60
2018-04-18T04:13:56.536Z,9.60
2018-04-18T04:16:36.272Z,9.50
2018-04-18T04:19:15.872Z,9.40
2018-04-18T04:21:56.200Z,9.60
2018-04-18T04:24:36.032Z,9.60
2018-04-18T04:27:03.794Z,9.80
2018-04-18T04:29:31.424Z,9.80
2018-04-18T04:32:00.426Z,9.80
2018-04-18T04:34:28.119Z,9.80
2018-04-18T04:36:55.796Z,9.80
2018-04-18T04:39:23.458Z,10.30
2018-04-18T04:41:51.299Z,10.80
2018-04-18T04:44:19.065Z,11.10
2018-04-18T04:46:46.719Z,11.40
2018-04-18T04:49:14.489Z,11.50
2018-04-18T04:51:42.103Z,12.20
2018-04-18T04:54:10.632Z,12.50
2018-04-18T04:56:38.499Z,12.50
2018-04-18T04:59:06.271Z,12.90
2018-04-18T05:01:33.943Z,13.20
2018-04-18T05:04:01.694Z,13.50
2018-04-18T05:06:29.337Z,13.70
2018-04-18T05:08:56.952Z,13.60
2018-04-18T05:11:24.612Z,13.90
2018-04-18T05:13:52.248Z,14.20
2018-04-18T05:16:19.853Z,14.40
2018-04-18T05:18:48.484Z,14.20
2018-04-18T05:21:16.194Z,14.20
2018-04-18T05:23:43.861Z,14.50
2018-04-18T05:26:12.497Z,14.90
2018-04-18T05:28:40.372Z,14.90
2018-04-18T05:31:08.127Z,14.70
2018-04-18T05:33:35.752Z,14.50
2018-04-18T05:36:04.188Z,14.20
2018-04-18T05:38:31.944Z,14.20
2018-04-18T05:40:59.699Z,14.50
2018-04-18T05:43:27.324Z,14.30
2018-04-18T05:45:55.733Z,14.30
2018-04-18T05:48:23.505Z,14.30
2018-04-18T05:50:51.112Z,14.30
2018-04-18T05:53:19.490Z,14.20
2018-04-18T05:55:48.131Z,14.60
2018-04-18T05:58:15.750Z,14.50
2018-04-18T06:00:45.089Z,14.50
2018-04-18T06:03:12.964Z,14.50
2018-04-18T06:05:40.590Z,14.50
2018-04-18T06:08:08.204Z,14.60
2018-04-18T06:10:35.860Z,14.60
2018-04-18T06:13:03.535Z,15.20
2018-04-18T06:15:31.378Z,16.20
2018-04-18T06:17:59.033Z,17.30
2018-04-18T06:20:26.681Z,18.70
2018-04-18T06:22:54.465Z,19.60
2018-04-18T06:25:22.157Z,20.10
2018-04-18T06:27:49.776Z,19.80
2018-04-18T06:30:17.554Z,19.20
2018-04-18T06:32:45.236Z,20.00
2018-04-18T06:35:13.084Z,20.20
2018-04-18T06:37:40.748Z,19.70
2018-04-18T06:40:08.365Z,19.90
2018-04-18T06:42:36.921Z,18.90
2018-04-18T06:45:05.576Z,18.90
2018-04-18T06:47:33.443Z,18.40
2018-04-18T06:50:01.068Z,18.10
2018-04-18T06:52:28.676Z,17.60
2018-04-18T06:54:56.431Z,17.10
2018-04-18T06:57:24.230Z,17.40
2018-04-18T06:59:51.960Z,17.60
2018-04-18T07:02:19.725Z,18.10
2018-04-18T07:04:48.207Z,19.40
2018-04-18T07:07:15.973Z,20.00
2018-04-18T07:09:43.752Z,20.90
2018-04-18T07:12:11.368Z,21.20
2018-04-18T07:14:39.093Z,20.80
2018-04-18T07:17:06.764Z,19.70
2018-04-18T07:19:34.411Z,18.90
2018-04-18T07:22:02.094Z,18.40
2018-04-18T07:24:30.545Z,18.00
2018-04-18T07:26:58.176Z,18.00
2018-04-18T07:29:25.813Z,17.80
2018-04-18T07:31:54.236Z,17.70
2018-04-18T07:34:21.862Z,17.70
2018-04-18T07:36:49.589Z,17.60
2018-04-18T07:39:17.252Z,17.50
2018-04-18T07:41:44.901Z,17.40
2018-04-18T07:44:12.572Z,17.60
2018-04-18T07:46:40.208Z,17.50
2018-04-18T07:49:07.828Z,17.40
2018-04-18T07:51:36.296Z,17.50
2018-04-18T07:54:04.737Z,17.50
2018-04-18T07:56:32.345Z,17.50
2018-04-18T07:59:00.777Z,17.60
2018-04-18T08:01:28.466Z,17.60
2018-04-18T08:03:56.200Z,17.60
2018-04-18T08:06:23.965Z,17.50
2018-04-18T08:08:51.629Z,17.60
2018-04-18T08:11:19.424Z,17.50
2018-04-18T08:13:47.157Z,17.40
2018-04-18T08:16:14.769Z,17.40
2018-04-18T08:18:43.184Z,17.50
2018-04-18T08:21:10.963Z,17.40
2018-04-18T08:23:38.727Z,17.40
2018-04-18T08:26:06.494Z,17.40
2018-04-18T08:28:34.360Z,17.30
2018-04-18T08:31:02.125Z,17.30
2018-04-18T08:33:29.921Z,17.30
2018-04-18T08:35:57.535Z,17.20
2018-04-18T08:38:25.140Z,17.20
2018-04-18T08:40:52.808Z,17.20
2018-04-18T08:43:20.415Z,17.20
2018-04-18T08:45:48.202Z,17.30
2018-04-18T08:48:15.895Z,17.20
2018-04-18T08:50:43.628Z,17.20
2018-04-18T08:53:11.396Z,17.20
2018-04-18T08:55:39.005Z,17.20
2018-04-18T08:58:07.420Z,17.30
2018-04-18T09:00:35.032Z,17.30
2018-04-18T09:03:02.650Z,17.30
2018-04-18T09:05:30.422Z,17.20
2018-04-18T09:07:58.185Z,17.20
2018-04-18T09:10:25.951Z,17.10
2018-04-18T09:12:53.715Z,17.10
2018-04-18T09:15:21.344Z,17.30
2018-04-18T09:17:49.069Z,17.20
2018-04-18T09:20:16.716Z,17.10
2018-04-18T09:22:44.468Z,17.10
2018-04-18T09:25:12.162Z,17.30
2018-04-18T09:27:39.777Z,17.30
2018-04-18T09:30:07.409Z,17.30
2018-04-18T09:32:35.844Z,17.40
2018-04-18T09:35:03.548Z,17.30
2018-04-18T09:37:32.848Z,17.40
2018-04-18T09:40:01.224Z,17.40
2018-04-18T09:42:29.656Z,17.40
2018-04-18T09:44:57.268Z,17.40
2018-04-18T09:47:25.700Z,17.60
2018-04-18T09:49:53.360Z,17.60
2018-04-18T09:52:21.027Z,17.60
2018-04-18T09:54:48.788Z,17.60
2018-04-18T09:57:16.592Z,17.60
2018-04-18T09:59:44.972Z,17.90
2018-04-18T10:02:31.368Z,17.90
2018-04-18T10:05:04.935Z,17.90
2018-04-18T10:07:32.576Z,18.00
2018-04-18T10:10:00.364Z,18.00
2018-04-18T10:12:27.980Z,18.00
2018-04-18T10:14:56.430Z,18.00
2018-04-18T10:17:24.043Z,18.00
2018-04-18T10:19:51.757Z,18.10
2018-04-18T10:22:20.232Z,18.20
2018-04-18T10:24:49.240Z,18.20
2018-04-18T10:27:16.889Z,18.20
2018-04-18T10:29:44.547Z,18.30
2018-04-18T10:32:12.151Z,18.30
2018-04-18T10:34:40.571Z,18.30
2018-04-18T10:37:08.215Z,18.30
2018-04-18T10:39:35.815Z,18.40
2018-04-18T10:42:03.556Z,18.40
2018-04-18T10:44:31.320Z,18.40
2018-04-18T10:46:59.085Z,18.40
2018-04-18T10:49:26.707Z,18.30
2018-04-18T10:51:55.121Z,18.40
2018-04-18T10:54:22.779Z,18.30
2018-04-18T10:56:50.556Z,18.30
2018-04-18T10:59:18.351Z,18.50
2018-04-18T11:01:45.972Z,18.60
2018-04-18T11:04:13.611Z,18.50
2018-04-18T11:06:41.297Z,18.60
2018-04-18T11:09:08.912Z,18.50
2018-04-18T11:11:37.454Z,18.40
2018-04-18T11:14:05.246Z,18.40
2018-04-18T11:16:32.900Z,18.60
2018-04-18T11:19:00.566Z,18.60
2018-04-18T11:21:28.212Z,18.60
2018-04-18T11:23:55.808Z,18.60
2018-04-18T11:26:24.388Z,18.60
2018-04-18T11:28:52.333Z,18.60
2018-04-18T11:31:19.990Z,18.70
2018-04-18T11:33:47.744Z,18.70
2018-04-18T11:36:15.436Z,18.80
2018-04-18T11:38:44.810Z,18.90
2018-04-18T11:41:12.502Z,18.90
2018-04-18T11:43:40.275Z,18.90
2018-04-18T11:46:08.828Z,19.00
2018-04-18T11:48:36.431Z,19.00
2018-04-18T11:51:04.894Z,19.00
2018-04-18T11:53:33.557Z,18.90
2018-04-18T11:56:01.415Z,18.90
2018-04-18T11:58:29.056Z,18.90
2018-04-18T12:00:56.842Z,18.90
2018-04-18T12:03:24.635Z,18.80
2018-04-18T12:05:53.121Z,18.90
2018-04-18T12:08:20.956Z,18.80
2018-04-18T12:10:48.660Z,18.80
2018-04-18T12:13:17.208Z,18.70
2018-04-18T12:15:45.072Z,18.70
2018-04-18T12:18:12.713Z,18.90
2018-04-18T12:20:40.539Z,19.00
2018-04-18T12:23:08.187Z,18.90
2018-04-18T12:25:36.742Z,18.90
2018-04-18T12:28:04.611Z,18.90
2018-04-18T12:30:32.377Z,18.90
2018-04-18T12:32:59.992Z,18.90
2018-04-18T12:35:28.555Z,19.00
2018-04-18T12:37:57.021Z,18.90
2018-04-18T12:40:24.867Z,18.90
2018-04-18T12:42:52.652Z,19.00
2018-04-18T12:45:20.397Z,19.00
2018-04-18T12:47:48.057Z,19.00
2018-04-18T12:50:15.677Z,19.10
2018-04-18T12:52:44.099Z,19.20
2018-04-18T12:55:11.747Z,19.10
2018-04-18T12:57:39.360Z,19.20
2018-04-18T13:00:07.189Z,19.20
2018-04-18T13:02:34.832Z,19.20
2018-04-18T13:05:02.445Z,19.20
2018-04-18T13:07:30.060Z,19.20
2018-04-18T13:09:57.869Z,19.20
2018-04-18T13:12:25.495Z,19.10
2018-04-18T13:14:53.157Z,19.20
2018-04-18T13:17:20.772Z,19.30
2018-04-18T13:19:49.205Z,19.50
2018-04-18T13:22:17.621Z,19.50
2018-04-18T13:24:45.284Z,19.60
2018-04-18T13:27:13.865Z,19.50
2018-04-18T13:29:41.501Z,19.50
2018-04-18T13:32:09.116Z,19.40
2018-04-18T13:34:37.670Z,19.30
2018-04-18T13:37:05.503Z,19.30
2018-04-18T13:39:33.133Z,19.40
2018-04-18T13:42:00.929Z,19.40
2018-04-18T13:44:28.547Z,19.50
2018-04-18T13:46:56.927Z,19.60
2018-04-18T13:49:25.335Z,19.50
2018-04-18T13:51:53.116Z,19.40
2018-04-18T13:54:20.760Z,19.50
2018-04-18T13:56:48.404Z,19.40
2018-04-18T13:59:16.206Z,19.50
2018-04-18T14:01:44.752Z,19.50
2018-04-18T14:04:13.168Z,19.60
2018-04-18T14:06:41.037Z,19.60
2018-04-18T14:09:08.800Z,19.60
2018-04-18T14:11:36.564Z,19.50
2018-04-18T14:14:04.216Z,19.50
2018-04-18T14:16:31.993Z,19.50
2018-04-18T14:18:59.612Z,19.50
2018-04-18T14:21:28.240Z,19.60
2018-04-18T14:23:56.006Z,19.50
2018-04-18T14:26:23.667Z,19.60
2018-04-18T14:28:51.330Z,19.60
2018-04-18T14:31:19.017Z,19.70
2018-04-18T14:33:46.670Z,19.70
2018-04-18T14:36:14.379Z,19.70
2018-04-18T14:38:42.114Z,19.70
2018-04-18T14:41:09.877Z,19.70
2018-04-18T14:43:37.521Z,19.80
2018-04-18T14:46:05.169Z,19.80
2018-04-18T14:48:32.860Z,19.80
2018-04-18T14:51:00.504Z,19.70
2018-04-18T14:53:28.112Z,19.80
2018-04-18T14:55:56.480Z,20.00
2018-04-18T14:58:24.933Z,19.80
2018-04-18T15:00:52.532Z,19.80
2018-04-18T15:03:20.903Z,20.10
2018-04-18T15:05:50.365Z,20.10
2018-04-18T15:08:18.050Z,20.10
2018-04-18T15:10:45.965Z,20.10
2018-04-18T15:13:14.473Z,20.00
2018-04-18T15:15:42.089Z,19.90
2018-04-18T15:18:09.849Z,20.20
2018-04-18T15:20:38.258Z,20.00
2018-04-18T15:23:05.973Z,19.90
2018-04-18T15:25:33.810Z,19.90
2018-04-18T15:28:01.516Z,19.90
2018-04-18T15:30:29.953Z,19.80
2018-04-18T15:32:57.750Z,19.80
2018-04-18T15:35:25.364Z,19.90
2018-04-18T15:37:53.150Z,19.80
2018-04-18T15:40:20.804Z,19.80
2018-04-18T15:42:48.573Z,19.80
2018-04-18T15:45:16.342Z,19.80
2018-04-18T15:47:44.034Z,19.80
2018-04-18T15:50:11.657Z,19.70
2018-04-18T15:52:39.296Z,19.80
2018-04-18T15:55:06.903Z,19.70
2018-04-18T15:57:34.756Z,19.70
2018-04-18T16:00:02.447Z,19.70
2018-04-18T16:02:30.097Z,19.70
2018-04-18T16:04:58.590Z,19.70
2018-04-18T16:07:26.249Z,19.70
2018-04-18T16:09:53.889Z,19.70
2018-04-18T16:12:21.753Z,19.70
2018-04-18T16:14:49.360Z,19.70
2018-04-18T16:17:17.732Z,19.60
2018-04-18T16:19:45.392Z,19.60
2018-04-18T16:22:12.995Z,19.70
2018-04-18T16:24:40.599Z,19.70
2018-04-18T16:27:08.445Z,19.70
2018-04-18T16:29:42.892Z,19.60
2018-04-18T16:32:10.732Z,19.60
2018-04-18T16:34:38.494Z,19.60
2018-04-18T16:37:06.260Z,19.60
2018-04-18T16:39:33.909Z,19.60
2018-04-18T16:42:01.686Z,19.60
2018-04-18T16:44:30.111Z,19.60
2018-04-18T16:46:58.652Z,19.60
2018-04-18T16:49:26.413Z,19.50
2018-04-18T16:51:54.025Z,19.50
2018-04-18T16:54:22.510Z,19.50
2018-04-18T16:56:51.039Z,19.70
2018-04-18T16:59:18.651Z,19.70
2018-04-18T17:01:47.070Z,19.70
2018-04-18T17:04:14.768Z,19.70
2018-04-18T17:06:42.436Z,19.70
2018-04-18T17:09:10.272Z,19.80
2018-04-18T17:11:37.881Z,19.70
2018-04-18T17:14:06.300Z,19.70
2018-04-18T17:16:34.007Z,19.60
2018-04-18T17:19:02.379Z,19.50
2018-04-18T17:21:30.283Z,19.50
2018-04-18T17:23:57.901Z,19.50
2018-04-18T17:26:25.576Z,19.50
2018-04-18T17:28:53.517Z,19.40
2018-04-18T17:31:21.137Z,19.50
2018-04-18T17:33:49.597Z,19.40
2018-04-18T17:36:18.061Z,19.40
2018-04-18T17:38:45.679Z,19.30
2018-04-18T17:41:13.326Z,19.30
2018-04-18T17:43:41.879Z,19.30
2018-04-18T17:46:09.508Z,19.30
2018-04-18T17:48:37.259Z,19.30
2018-04-18T17:51:04.875Z,19.20
2018-04-18T17:53:34.012Z,19.10
2018-04-18T17:56:01.680Z,19.10
2018-04-18T17:58:29.283Z,19.10
2018-04-18T18:00:56.928Z,19.10
2018-04-18T18:03:24.569Z,19.10
2018-04-18T18:05:52.374Z,19.00
2018-04-18T18:08:20.764Z,19.00
2018-04-18T18:10:48.377Z,19.00
2018-04-18T18:13:16.012Z,19.00
2018-04-18T18:15:43.812Z,18.90
2018-04-18T18:18:11.679Z,18.90
2018-04-18T18:20:39.446Z,18.90
2018-04-18T18:23:07.138Z,18.80
2018-04-18T18:25:34.812Z,18.80
2018-04-18T18:28:04.275Z,18.70
2018-04-18T18:30:32.042Z,18.70
2018-04-18T18:32:59.759Z,18.70
2018-04-18T18:35:28.286Z,18.60
2018-04-18T18:37:55.928Z,18.60
2018-04-18T18:40:23.642Z,18.60
2018-04-18T18:42:51.252Z,18.60
2018-04-18T18:45:18.864Z,18.50
2018-04-18T18:47:48.236Z,18.50
2018-04-18T18:50:15.873Z,18.50
2018-04-18T18:52:43.488Z,18.40
2018-04-18T18:55:11.136Z,18.40
2018-04-18T18:57:38.749Z,18.40
2018-04-18T19:00:06.472Z,18.30
2018-04-18T19:02:34.313Z,18.30
2018-04-18T19:05:02.007Z,18.30
2018-04-18T19:07:29.768Z,18.20
2018-04-18T19:09:57.539Z,18.10
2018-04-18T19:12:25.191Z,18.10
2018-04-18T19:14:52.861Z,18.10
2018-04-18T19:17:20.476Z,18.10
2018-04-18T19:19:48.187Z,18.00
2018-04-18T19:22:15.857Z,18.00
2018-04-18T19:24:44.376Z,17.90
2018-04-18T19:27:12.040Z,17.90
2018-04-18T19:29:39.829Z,17.90
2018-04-18T19:32:07.595Z,17.80
2018-04-18T19:34:35.257Z,17.80
2018-04-18T19:37:02.910Z,17.70
2018-04-18T19:39:30.688Z,17.50
2018-04-18T19:41:58.371Z,17.30
2018-04-18T19:44:26.109Z,17.20
2018-04-18T19:46:53.780Z,17.10
2018-04-18T19:49:21.384Z,17.00
2018-04-18T19:51:49.837Z,17.10
2018-04-18T19:54:17.680Z,17.10
2018-04-18T19:56:45.373Z,17.20
2018-04-18T19:59:13.148Z,17.20
2018-04-18T20:01:40.902Z,17.20
2018-04-18T20:04:10.955Z,16.80
2018-04-18T20:06:38.703Z,16.80
2018-04-18T20:09:06.349Z,16.60
2018-04-18T20:11:34.083Z,16.50
2018-04-18T20:14:01.948Z,16.50
2018-04-18T20:16:29.572Z,16.50
2018-04-18T20:18:57.376Z,16.50
2018-04-18T20:21:25.028Z,16.50
2018-04-18T20:23:52.640Z,16.40
2018-04-18T20:26:21.059Z,16.40
2018-04-18T20:28:48.773Z,16.40
2018-04-18T20:31:16.610Z,16.40
2018-04-18T20:33:44.224Z,16.30
2018-04-18T20:36:12.601Z,16.20
2018-04-18T20:38:41.008Z,16.20
2018-04-18T20:41:08.639Z,16.20
2018-04-18T20:43:37.052Z,16.20
2018-04-18T20:46:04.770Z,16.20
2018-04-18T20:48:32.499Z,16.10
2018-04-18T20:51:00.298Z,16.20
2018-04-18T20:53:28.133Z,16.10
2018-04-18T20:55:55.780Z,15.90
2018-04-18T20:58:23.404Z,15.80
2018-04-18T21:00:51.895Z,15.70
2018-04-18T21:03:20.264Z,15.70
2018-04-18T21:05:48.648Z,15.70
2018-04-18T21:08:17.106Z,15.60
2018-04-18T21:10:44.767Z,15.60
2018-04-18T21:13:12.501Z,15.60
2018-04-18T21:15:40.112Z,15.50
2018-04-18T21:18:08.762Z,15.50
2018-04-18T21:20:36.419Z,15.50
2018-04-18T21:23:04.023Z,15.50
2018-04-18T21:25:32.441Z,15.40
2018-04-18T21:28:00.219Z,15.40
2018-04-18T21:30:27.990Z,15.40
2018-04-18T21:32:55.643Z,15.40
2018-04-18T21:35:23.252Z,15.30
2018-04-18T21:37:51.685Z,15.40
2018-04-18T21:40:19.481Z,15.40
2018-04-18T21:42:47.121Z,15.30
2018-04-18T21:45:14.733Z,15.20
2018-04-18T21:47:43.170Z,15.00
2018-04-18T21:50:10.779Z,14.90
2018-04-18T21:52:39.181Z,15.00
2018-04-18T21:55:06.884Z,14.90
2018-04-18T21:57:34.657Z,15.00
2018-04-18T22:00:02.418Z,15.00
2018-04-18T22:02:30.079Z,15.00
2018-04-18T22:04:57.700Z,15.00
2018-04-18T22:07:25.341Z,15.00
2018-04-18T22:09:53.255Z,15.00
2018-04-18T22:12:20.913Z,15.00
2018-04-18T22:14:48.668Z,14.90
2018-04-18T22:17:16.342Z,14.90
2018-04-18T22:19:44.095Z,15.00
2018-04-18T22:22:11.707Z,14.80
2018-04-18T22:24:40.182Z,14.70
2018-04-18T22:27:07.780Z,14.70
2018-04-18T22:29:36.295Z,14.70
2018-04-18T22:32:04.053Z,14.70
2018-04-18T22:34:31.709Z,14.60
2018-04-18T22:36:59.403Z,14.60
2018-04-18T22:39:27.784Z,14.60
2018-04-18T22:41:55.564Z,14.50
2018-04-18T22:44:23.989Z,14.50
2018-04-18T22:46:51.605Z,14.50
2018-04-18T22:49:20.061Z,14.40
2018-04-18T22:51:48.445Z,14.40
2018-04-18T22:54:16.284Z,14.40
2018-04-18T22:56:44.049Z,14.40
2018-04-18T22:59:11.659Z,14.30
2018-04-18T23:01:41.025Z,14.40
2018-04-18T23:04:08.652Z,14.30
2018-04-18T23:06:36.269Z,14.40
2018-04-18T23:09:04.688Z,14.30
2018-04-18T23:11:32.296Z,14.20
2018-04-18T23:14:00.144Z,14.30
2018-04-18T23:16:27.808Z,14.30
2018-04-18T23:18:55.533Z,14.20
2018-04-18T23:21:23.339Z,14.20
2018-04-18T23:23:51.129Z,14.20
2018-04-18T23:26:18.797Z,14.30
2018-04-18T23:28:46.560Z,14.20
2018-04-18T23:31:14.291Z,14.20
2018-04-18T23:33:41.973Z,14.20
2018-04-18T23:36:09.731Z,14.10
2018-04-18T23:38:37.348Z,13.90
2018-04-18T23:41:05.758Z,13.90
2018-04-18T23:43:33.397Z,13.90
2018-04-18T23:46:01.187Z,13.90
2018-04-18T23:48:28.855Z,14.00
2018-04-18T23:50:56.614Z,13.90
2018-04-18T23:53:24.379Z,13.90
2018-04-18T23:55:52.145Z,13.80
2018-04-18T23:58:20.016Z,13.90
